KHEZ/HEZ METAR and TAF weather

Enter ICAO airport designator
Station Type Date Time Source
KHEZ METAR 2019/02/23 16:56 UTC NOAA

KHEZ 231656Z AUTO 21014G24KT 10SM SCT021 BKN027 BKN050 25/21 A2991 RMK AO2 RAE1559 SLP130 P0000 T02500206


Station Type Date Time Source
KHEZ Decoded METAR 2019/02/23 16:56 UTC NOAA

Natchez, Hardy-Anders Field Natchez-Adams County Airport, MS, United States (KHEZ) 31-37N 091-18W
Feb 23, 2019 - 11:56 AM EST / 2019.02.23 1656 UTC
Wind: from the SSW (210 degrees) at 16 MPH (14 KT) gusting to 28 MPH (24 KT):0
Visibility: 10 mile(s):0
Sky conditions: mostly cloudy
Precipitation last hour: A trace
Temperature: 77.0 F (25.0 C)
Dew Point: 69.1 F (20.6 C)
Relative Humidity: 76%
Pressure (altimeter): 29.91 in. Hg (1012 hPa)
ob: KHEZ 231656Z AUTO 21014G24KT 10SM SCT021 BKN027 BKN050 25/21 A2991 RMK AO2 RAE1559 SLP130 P0000 T02500206
cycle: 17

Station Type Date Time Source
KHEZ TAF UTC NOAA

Error!


Example: see airport list